首页
METAR-TAF:

METAR-TAF

机场 :

達拉曼, 土耳其

纬度: 36-42N, 经度: 028-47E, 海拔: 7米

当前天气观测

该预报发布于20分钟前的01:20 UTC
风速4节,风向东北
温度 19°C
湿度 78%
气压 1011 hPa
能见度10公里或以上
1500米以下无云,无积雨云

METAR: LTBS 200120Z 05004KT CAVOK 19/15 Q1011 NOSIG

时间: 04:40 (01:40 UTC)

预报

该预报发布于3小时和0分钟前的22:40 UTC
预报有效从20日的 00点(UTC)到 20日的 24点(UTC)
风速2节,风向多变
能见度10公里或以上
1500米以下无云,无积雨云
成为
从 20日的 07点(UTC)到 20日的 09点(UTC)
风速12节,风向西南
少量云层高于3000英尺
成为
从 20日的 16点(UTC)到 20日的 18点(UTC)
风速2节,风向多变

TAF: LTBS 192240Z 2000/2024 VRB02KT CAVOK BECMG 2007/2009 23012KT FEW030 BECMG 2016/2018 VRB02KT

超过4000个机场的气象观测和天气预报(METAR&TAF报告)。

可查询的气象台以黄色和红色小点在地图上表示。

将鼠标移到小点上方,可查看气象台名称。

然后点击查看天气观测和预报。

如需切换地图:点击带黑十字的绿色按钮放大地图;点击带横线的绿色按钮缩小地图;或者点击绿色箭头查看邻近地区的地图。


METAR-TAF: